sensor_id;sensor_type;location;lat;lon;timestamp;P1;durP1;ratioP1;P2;durP2;ratioP2
7767;SDS011;3928;42.626;23.382;2023-04-15T00:00:35;6.87;;;3.73;;
7767;SDS011;3928;42.626;23.382;2023-04-15T00:03:02;3.63;;;3.00;;
7767;SDS011;3928;42.626;23.382;2023-04-15T00:05:30;7.33;;;3.00;;
7767;SDS011;3928;42.626;23.382;2023-04-15T00:07:57;4.47;;;3.07;;
7767;SDS011;3928;42.626;23.382;2023-04-15T00:10:25;3.47;;;2.87;;
7767;SDS011;3928;42.626;23.382;2023-04-15T00:12:52;7.57;;;3.17;;
7767;SDS011;3928;42.626;23.382;2023-04-15T00:15:19;4.80;;;2.90;;
7767;SDS011;3928;42.626;23.382;2023-04-15T00:17:48;6.43;;;3.53;;
7767;SDS011;3928;42.626;23.382;2023-04-15T00:20:16;4.60;;;3.00;;
7767;SDS011;3928;42.626;23.382;2023-04-15T00:22:44;5.47;;;2.70;;
7767;SDS011;3928;42.626;23.382;2023-04-15T00:25:11;4.13;;;3.10;;
7767;SDS011;3928;42.626;23.382;2023-04-15T00:27:39;5.83;;;3.80;;
7767;SDS011;3928;42.626;23.382;2023-04-15T00:30:06;7.33;;;4.03;;
7767;SDS011;3928;42.626;23.382;2023-04-15T00:32:33;8.70;;;4.47;;
7767;SDS011;3928;42.626;23.382;2023-04-15T00:35:00;9.60;;;5.23;;
7767;SDS011;3928;42.626;23.382;2023-04-15T00:37:28;9.47;;;4.70;;
7767;SDS011;3928;42.626;23.382;2023-04-15T00:39:56;6.80;;;4.23;;
7767;SDS011;3928;42.626;23.382;2023-04-15T00:42:23;8.83;;;4.30;;
7767;SDS011;3928;42.626;23.382;2023-04-15T00:44:51;4.27;;;3.27;;
7767;SDS011;3928;42.626;23.382;2023-04-15T00:47:18;6.87;;;4.03;;
7767;SDS011;3928;42.626;23.382;2023-04-15T00:49:45;7.70;;;3.70;;
7767;SDS011;3928;42.626;23.382;2023-04-15T00:52:12;6.23;;;3.83;;
7767;SDS011;3928;42.626;23.382;2023-04-15T00:54:39;7.67;;;3.77;;
7767;SDS011;3928;42.626;23.382;2023-04-15T00:57:07;6.93;;;3.90;;
7767;SDS011;3928;42.626;23.382;2023-04-15T00:59:34;9.13;;;4.27;;
7767;SDS011;3928;42.626;23.382;2023-04-15T01:02:01;7.33;;;3.93;;
7767;SDS011;3928;42.626;23.382;2023-04-15T01:04:28;4.93;;;3.40;;
7767;SDS011;3928;42.626;23.382;2023-04-15T01:06:56;6.33;;;3.60;;
7767;SDS011;3928;42.626;23.382;2023-04-15T01:09:22;5.57;;;3.50;;
7767;SDS011;3928;42.626;23.382;2023-04-15T01:11:49;5.63;;;3.80;;
7767;SDS011;3928;42.626;23.382;2023-04-15T01:14:18;4.50;;;3.40;;
7767;SDS011;3928;42.626;23.382;2023-04-15T01:16:45;7.90;;;3.90;;
7767;SDS011;3928;42.626;23.382;2023-04-15T01:19:12;8.27;;;3.77;;
7767;SDS011;3928;42.626;23.382;2023-04-15T01:21:42;7.37;;;3.90;;
7767;SDS011;3928;42.626;23.382;2023-04-15T01:24:09;6.33;;;3.70;;
7767;SDS011;3928;42.626;23.382;2023-04-15T01:26:37;6.03;;;3.80;;
7767;SDS011;3928;42.626;23.382;2023-04-15T01:29:05;6.97;;;3.83;;
7767;SDS011;3928;42.626;23.382;2023-04-15T01:31:32;5.03;;;3.70;;
7767;SDS011;3928;42.626;23.382;2023-04-15T01:33:59;4.90;;;3.60;;
7767;SDS011;3928;42.626;23.382;2023-04-15T01:36:26;5.40;;;4.27;;
7767;SDS011;3928;42.626;23.382;2023-04-15T01:38:54;6.33;;;3.57;;
7767;SDS011;3928;42.626;23.382;2023-04-15T01:41:24;4.27;;;3.40;;
7767;SDS011;3928;42.626;23.382;2023-04-15T01:43:52;5.83;;;3.50;;
7767;SDS011;3928;42.626;23.382;2023-04-15T01:46:19;3.83;;;3.13;;
7767;SDS011;3928;42.626;23.382;2023-04-15T01:48:46;5.07;;;2.97;;
7767;SDS011;3928;42.626;23.382;2023-04-15T01:51:13;3.83;;;3.00;;
7767;SDS011;3928;42.626;23.382;2023-04-15T01:53:40;4.13;;;3.23;;
7767;SDS011;3928;42.626;23.382;2023-04-15T01:56:07;4.70;;;3.43;;
7767;SDS011;3928;42.626;23.382;2023-04-15T01:58:34;3.10;;;2.77;;
7767;SDS011;3928;42.626;23.382;2023-04-15T02:01:02;5.17;;;3.50;;
7767;SDS011;3928;42.626;23.382;2023-04-15T02:03:29;4.03;;;3.10;;
7767;SDS011;3928;42.626;23.382;2023-04-15T02:05:56;4.50;;;3.10;;
7767;SDS011;3928;42.626;23.382;2023-04-15T02:08:23;5.70;;;3.70;;
7767;SDS011;3928;42.626;23.382;2023-04-15T02:10:50;3.90;;;3.03;;
7767;SDS011;3928;42.626;23.382;2023-04-15T02:13:16;3.70;;;3.00;;
7767;SDS011;3928;42.626;23.382;2023-04-15T02:15:46;4.23;;;3.20;;
7767;SDS011;3928;42.626;23.382;2023-04-15T02:18:15;3.73;;;3.43;;
7767;SDS011;3928;42.626;23.382;2023-04-15T02:20:42;5.87;;;3.83;;
7767;SDS011;3928;42.626;23.382;2023-04-15T02:23:09;4.13;;;3.13;;
7767;SDS011;3928;42.626;23.382;2023-04-15T02:25:36;5.00;;;3.20;;
7767;SDS011;3928;42.626;23.382;2023-04-15T02:28:04;5.13;;;3.17;;
7767;SDS011;3928;42.626;23.382;2023-04-15T02:30:31;3.90;;;3.30;;
7767;SDS011;3928;42.626;23.382;2023-04-15T02:32:58;3.97;;;3.30;;
7767;SDS011;3928;42.626;23.382;2023-04-15T02:35:27;5.37;;;3.43;;
7767;SDS011;3928;42.626;23.382;2023-04-15T02:37:54;4.23;;;3.60;;
7767;SDS011;3928;42.626;23.382;2023-04-15T02:40:21;5.07;;;3.10;;
7767;SDS011;3928;42.626;23.382;2023-04-15T02:42:47;3.20;;;2.90;;
7767;SDS011;3928;42.626;23.382;2023-04-15T02:45:14;4.07;;;3.20;;
7767;SDS011;3928;42.626;23.382;2023-04-15T02:47:43;4.53;;;3.20;;
7767;SDS011;3928;42.626;23.382;2023-04-15T02:50:11;6.37;;;3.53;;
7767;SDS011;3928;42.626;23.382;2023-04-15T02:52:40;4.50;;;3.90;;
7767;SDS011;3928;42.626;23.382;2023-04-15T02:55:08;7.67;;;3.97;;
7767;SDS011;3928;42.626;23.382;2023-04-15T02:57:35;5.80;;;3.73;;
7767;SDS011;3928;42.626;23.382;2023-04-15T03:00:03;4.23;;;3.30;;
7767;SDS011;3928;42.626;23.382;2023-04-15T03:02:33;5.93;;;3.67;;
7767;SDS011;3928;42.626;23.382;2023-04-15T03:05:00;7.57;;;3.93;;
7767;SDS011;3928;42.626;23.382;2023-04-15T03:07:27;5.50;;;3.93;;
7767;SDS011;3928;42.626;23.382;2023-04-15T03:09:55;3.97;;;3.20;;
7767;SDS011;3928;42.626;23.382;2023-04-15T03:12:22;3.30;;;3.00;;
7767;SDS011;3928;42.626;23.382;2023-04-15T03:14:49;4.30;;;3.40;;
7767;SDS011;3928;42.626;23.382;2023-04-15T03:17:16;8.17;;;3.80;;
7767;SDS011;3928;42.626;23.382;2023-04-15T03:19:42;3.37;;;3.00;;
7767;SDS011;3928;42.626;23.382;2023-04-15T03:22:09;5.70;;;3.53;;
7767;SDS011;3928;42.626;23.382;2023-04-15T03:24:36;5.67;;;3.77;;
7767;SDS011;3928;42.626;23.382;2023-04-15T03:27:04;6.17;;;3.57;;
7767;SDS011;3928;42.626;23.382;2023-04-15T03:29:32;4.10;;;3.50;;
7767;SDS011;3928;42.626;23.382;2023-04-15T03:31:59;4.53;;;3.20;;
7767;SDS011;3928;42.626;23.382;2023-04-15T03:34:26;5.03;;;3.17;;
7767;SDS011;3928;42.626;23.382;2023-04-15T03:36:53;3.40;;;3.10;;
7767;SDS011;3928;42.626;23.382;2023-04-15T03:39:21;3.47;;;3.10;;
7767;SDS011;3928;42.626;23.382;2023-04-15T03:41:48;6.40;;;3.40;;
7767;SDS011;3928;42.626;23.382;2023-04-15T03:44:16;3.80;;;3.40;;
7767;SDS011;3928;42.626;23.382;2023-04-15T03:46:42;4.77;;;3.57;;
7767;SDS011;3928;42.626;23.382;2023-04-15T03:49:09;4.87;;;3.33;;
7767;SDS011;3928;42.626;23.382;2023-04-15T03:51:36;5.47;;;3.50;;
7767;SDS011;3928;42.626;23.382;2023-04-15T03:54:03;7.73;;;4.20;;
7767;SDS011;3928;42.626;23.382;2023-04-15T03:56:30;7.33;;;4.27;;
7767;SDS011;3928;42.626;23.382;2023-04-15T03:58:56;6.07;;;4.10;;
7767;SDS011;3928;42.626;23.382;2023-04-15T04:01:25;7.93;;;6.20;;
7767;SDS011;3928;42.626;23.382;2023-04-15T04:03:51;8.27;;;6.37;;
7767;SDS011;3928;42.626;23.382;2023-04-15T04:06:18;9.03;;;6.13;;
7767;SDS011;3928;42.626;23.382;2023-04-15T04:08:45;9.50;;;6.50;;
7767;SDS011;3928;42.626;23.382;2023-04-15T04:11:12;7.43;;;5.37;;
7767;SDS011;3928;42.626;23.382;2023-04-15T04:13:39;10.77;;;5.90;;
7767;SDS011;3928;42.626;23.382;2023-04-15T04:16:05;8.40;;;5.70;;
7767;SDS011;3928;42.626;23.382;2023-04-15T04:18:34;6.77;;;5.50;;
7767;SDS011;3928;42.626;23.382;2023-04-15T04:21:00;6.90;;;5.50;;
7767;SDS011;3928;42.626;23.382;2023-04-15T04:23:27;9.97;;;6.20;;
7767;SDS011;3928;42.626;23.382;2023-04-15T04:25:54;8.33;;;5.73;;
7767;SDS011;3928;42.626;23.382;2023-04-15T04:28:21;6.60;;;5.33;;
7767;SDS011;3928;42.626;23.382;2023-04-15T04:30:48;9.77;;;6.63;;
7767;SDS011;3928;42.626;23.382;2023-04-15T04:33:15;13.53;;;6.60;;
7767;SDS011;3928;42.626;23.382;2023-04-15T04:35:43;10.73;;;6.60;;
7767;SDS011;3928;42.626;23.382;2023-04-15T04:38:10;10.30;;;6.93;;
7767;SDS011;3928;42.626;23.382;2023-04-15T04:40:37;14.17;;;7.70;;
7767;SDS011;3928;42.626;23.382;2023-04-15T04:43:04;18.10;;;7.77;;
7767;SDS011;3928;42.626;23.382;2023-04-15T04:45:30;12.13;;;7.20;;
7767;SDS011;3928;42.626;23.382;2023-04-15T04:47:57;9.57;;;7.00;;
7767;SDS011;3928;42.626;23.382;2023-04-15T04:50:24;14.23;;;6.57;;
7767;SDS011;3928;42.626;23.382;2023-04-15T04:52:52;11.97;;;6.87;;
7767;SDS011;3928;42.626;23.382;2023-04-15T04:55:19;7.93;;;6.50;;
7767;SDS011;3928;42.626;23.382;2023-04-15T04:57:46;9.07;;;6.93;;
7767;SDS011;3928;42.626;23.382;2023-04-15T05:00:13;11.00;;;7.17;;
7767;SDS011;3928;42.626;23.382;2023-04-15T05:02:40;10.03;;;5.63;;
7767;SDS011;3928;42.626;23.382;2023-04-15T05:05:08;8.33;;;5.20;;
7767;SDS011;3928;42.626;23.382;2023-04-15T05:07:35;8.40;;;5.63;;
7767;SDS011;3928;42.626;23.382;2023-04-15T05:10:03;9.13;;;6.23;;
7767;SDS011;3928;42.626;23.382;2023-04-15T05:12:31;10.77;;;6.60;;
7767;SDS011;3928;42.626;23.382;2023-04-15T05:14:58;8.00;;;7.10;;
7767;SDS011;3928;42.626;23.382;2023-04-15T05:17:25;9.63;;;7.10;;
7767;SDS011;3928;42.626;23.382;2023-04-15T05:19:51;10.23;;;6.87;;
7767;SDS011;3928;42.626;23.382;2023-04-15T05:22:18;8.57;;;6.97;;
7767;SDS011;3928;42.626;23.382;2023-04-15T05:24:45;8.70;;;5.83;;
7767;SDS011;3928;42.626;23.382;2023-04-15T05:27:13;7.40;;;6.07;;
7767;SDS011;3928;42.626;23.382;2023-04-15T05:29:40;11.50;;;6.40;;
7767;SDS011;3928;42.626;23.382;2023-04-15T05:32:07;9.03;;;6.50;;
7767;SDS011;3928;42.626;23.382;2023-04-15T05:34:34;9.10;;;6.17;;
7767;SDS011;3928;42.626;23.382;2023-04-15T05:37:01;8.67;;;5.77;;
7767;SDS011;3928;42.626;23.382;2023-04-15T05:39:28;8.57;;;6.90;;
7767;SDS011;3928;42.626;23.382;2023-04-15T05:41:56;6.30;;;4.60;;
7767;SDS011;3928;42.626;23.382;2023-04-15T05:44:25;9.47;;;4.93;;
7767;SDS011;3928;42.626;23.382;2023-04-15T05:46:52;6.30;;;5.20;;
7767;SDS011;3928;42.626;23.382;2023-04-15T05:49:18;4.70;;;4.23;;
7767;SDS011;3928;42.626;23.382;2023-04-15T05:51:46;7.37;;;4.97;;
7767;SDS011;3928;42.626;23.382;2023-04-15T05:54:13;8.00;;;5.23;;
7767;SDS011;3928;42.626;23.382;2023-04-15T05:56:40;5.40;;;4.10;;
7767;SDS011;3928;42.626;23.382;2023-04-15T05:59:07;9.07;;;4.23;;
7767;SDS011;3928;42.626;23.382;2023-04-15T06:01:35;7.20;;;5.27;;
7767;SDS011;3928;42.626;23.382;2023-04-15T06:04:02;6.30;;;4.47;;
7767;SDS011;3928;42.626;23.382;2023-04-15T06:06:29;7.97;;;5.50;;
7767;SDS011;3928;42.626;23.382;2023-04-15T06:08:56;14.20;;;5.53;;
7767;SDS011;3928;42.626;23.382;2023-04-15T06:11:23;7.53;;;4.83;;
7767;SDS011;3928;42.626;23.382;2023-04-15T06:13:51;8.30;;;4.67;;
7767;SDS011;3928;42.626;23.382;2023-04-15T06:16:18;5.43;;;3.77;;
7767;SDS011;3928;42.626;23.382;2023-04-15T06:18:46;5.13;;;3.47;;
7767;SDS011;3928;42.626;23.382;2023-04-15T06:21:13;4.63;;;3.23;;
7767;SDS011;3928;42.626;23.382;2023-04-15T06:23:40;4.00;;;2.97;;
7767;SDS011;3928;42.626;23.382;2023-04-15T06:26:07;3.90;;;3.20;;
7767;SDS011;3928;42.626;23.382;2023-04-15T06:28:33;5.93;;;3.53;;
7767;SDS011;3928;42.626;23.382;2023-04-15T06:31:00;5.27;;;2.93;;
7767;SDS011;3928;42.626;23.382;2023-04-15T06:33:27;6.07;;;3.50;;
7767;SDS011;3928;42.626;23.382;2023-04-15T06:35:56;4.50;;;3.67;;
7767;SDS011;3928;42.626;23.382;2023-04-15T06:38:22;8.98;;;3.67;;
7767;SDS011;3928;42.626;23.382;2023-04-15T06:40:49;5.63;;;3.57;;
7767;SDS011;3928;42.626;23.382;2023-04-15T06:43:16;6.03;;;3.73;;
7767;SDS011;3928;42.626;23.382;2023-04-15T06:45:43;7.50;;;3.58;;
7767;SDS011;3928;42.626;23.382;2023-04-15T06:48:10;8.43;;;3.90;;
7767;SDS011;3928;42.626;23.382;2023-04-15T06:50:37;6.53;;;3.50;;
7767;SDS011;3928;42.626;23.382;2023-04-15T06:53:05;8.98;;;3.95;;
7767;SDS011;3928;42.626;23.382;2023-04-15T06:55:32;4.07;;;3.40;;
7767;SDS011;3928;42.626;23.382;2023-04-15T06:57:59;10.27;;;4.00;;
7767;SDS011;3928;42.626;23.382;2023-04-15T07:00:26;8.18;;;4.38;;
7767;SDS011;3928;42.626;23.382;2023-04-15T07:02:53;12.20;;;3.95;;
7767;SDS011;3928;42.626;23.382;2023-04-15T07:05:20;5.05;;;3.00;;
7767;SDS011;3928;42.626;23.382;2023-04-15T07:07:47;5.93;;;3.40;;
7767;SDS011;3928;42.626;23.382;2023-04-15T07:10:15;5.28;;;3.08;;
7767;SDS011;3928;42.626;23.382;2023-04-15T07:12:42;6.07;;;3.13;;
7767;SDS011;3928;42.626;23.382;2023-04-15T07:15:09;4.25;;;2.95;;
7767;SDS011;3928;42.626;23.382;2023-04-15T07:17:36;4.97;;;3.33;;
7767;SDS011;3928;42.626;23.382;2023-04-15T07:20:04;8.27;;;4.13;;
7767;SDS011;3928;42.626;23.382;2023-04-15T07:22:32;6.90;;;3.63;;
7767;SDS011;3928;42.626;23.382;2023-04-15T07:24:59;4.32;;;2.85;;
7767;SDS011;3928;42.626;23.382;2023-04-15T07:27:27;6.65;;;3.00;;
7767;SDS011;3928;42.626;23.382;2023-04-15T07:29:55;7.15;;;3.05;;
7767;SDS011;3928;42.626;23.382;2023-04-15T07:32:21;6.85;;;2.90;;
7767;SDS011;3928;42.626;23.382;2023-04-15T07:34:48;3.75;;;3.20;;
7767;SDS011;3928;42.626;23.382;2023-04-15T07:37:15;6.28;;;4.55;;
7767;SDS011;3928;42.626;23.382;2023-04-15T07:39:43;5.70;;;3.42;;
7767;SDS011;3928;42.626;23.382;2023-04-15T07:42:09;7.13;;;4.43;;
7767;SDS011;3928;42.626;23.382;2023-04-15T07:44:38;7.47;;;4.03;;
7767;SDS011;3928;42.626;23.382;2023-04-15T07:47:04;7.00;;;4.00;;
7767;SDS011;3928;42.626;23.382;2023-04-15T07:49:31;5.90;;;3.75;;
7767;SDS011;3928;42.626;23.382;2023-04-15T07:51:58;6.90;;;3.83;;
7767;SDS011;3928;42.626;23.382;2023-04-15T07:54:25;7.65;;;4.10;;
7767;SDS011;3928;42.626;23.382;2023-04-15T07:56:52;7.80;;;3.88;;
7767;SDS011;3928;42.626;23.382;2023-04-15T07:59:20;4.22;;;3.33;;
7767;SDS011;3928;42.626;23.382;2023-04-15T08:01:48;6.55;;;3.67;;
7767;SDS011;3928;42.626;23.382;2023-04-15T08:04:15;6.78;;;3.55;;
7767;SDS011;3928;42.626;23.382;2023-04-15T08:06:42;4.55;;;3.00;;
7767;SDS011;3928;42.626;23.382;2023-04-15T08:09:09;4.13;;;3.00;;
7767;SDS011;3928;42.626;23.382;2023-04-15T08:11:35;5.05;;;2.80;;
7767;SDS011;3928;42.626;23.382;2023-04-15T08:14:02;4.25;;;3.00;;
7767;SDS011;3928;42.626;23.382;2023-04-15T08:16:29;5.95;;;3.13;;
7767;SDS011;3928;42.626;23.382;2023-04-15T08:18:58;7.55;;;2.88;;
7767;SDS011;3928;42.626;23.382;2023-04-15T08:21:25;4.85;;;2.70;;
7767;SDS011;3928;42.626;23.382;2023-04-15T08:23:52;3.92;;;2.20;;
7767;SDS011;3928;42.626;23.382;2023-04-15T08:26:19;5.72;;;2.58;;
7767;SDS011;3928;42.626;23.382;2023-04-15T08:28:47;3.88;;;2.60;;
7767;SDS011;3928;42.626;23.382;2023-04-15T08:31:15;2.63;;;2.30;;
7767;SDS011;3928;42.626;23.382;2023-04-15T08:33:43;5.13;;;2.55;;
7767;SDS011;3928;42.626;23.382;2023-04-15T08:36:12;7.22;;;2.95;;
7767;SDS011;3928;42.626;23.382;2023-04-15T08:38:39;5.25;;;2.58;;
7767;SDS011;3928;42.626;23.382;2023-04-15T08:41:06;10.02;;;3.38;;
7767;SDS011;3928;42.626;23.382;2023-04-15T08:43:41;6.38;;;2.72;;
7767;SDS011;3928;42.626;23.382;2023-04-15T08:46:11;6.30;;;2.75;;
7767;SDS011;3928;42.626;23.382;2023-04-15T08:48:38;6.40;;;3.00;;
7767;SDS011;3928;42.626;23.382;2023-04-15T08:51:05;5.20;;;2.38;;
7767;SDS011;3928;42.626;23.382;2023-04-15T08:53:34;5.25;;;2.90;;
7767;SDS011;3928;42.626;23.382;2023-04-15T08:56:03;6.75;;;2.92;;
7767;SDS011;3928;42.626;23.382;2023-04-15T08:58:34;7.68;;;2.63;;
7767;SDS011;3928;42.626;23.382;2023-04-15T09:01:01;4.22;;;2.42;;
7767;SDS011;3928;42.626;23.382;2023-04-15T09:03:28;6.70;;;2.75;;
7767;SDS011;3928;42.626;23.382;2023-04-15T09:05:55;6.63;;;2.45;;
7767;SDS011;3928;42.626;23.382;2023-04-15T09:08:22;5.35;;;2.45;;
7767;SDS011;3928;42.626;23.382;2023-04-15T09:10:50;5.80;;;2.35;;
7767;SDS011;3928;42.626;23.382;2023-04-15T09:13:18;7.55;;;2.45;;
7767;SDS011;3928;42.626;23.382;2023-04-15T09:15:46;7.43;;;2.20;;
7767;SDS011;3928;42.626;23.382;2023-04-15T09:18:13;3.50;;;2.33;;
7767;SDS011;3928;42.626;23.382;2023-04-15T09:20:53;4.38;;;2.17;;
7767;SDS011;3928;42.626;23.382;2023-04-15T09:23:21;3.95;;;1.95;;
7767;SDS011;3928;42.626;23.382;2023-04-15T09:25:48;3.03;;;2.25;;
7767;SDS011;3928;42.626;23.382;2023-04-15T09:28:22;2.97;;;2.13;;
7767;SDS011;3928;42.626;23.382;2023-04-15T09:30:50;4.10;;;2.17;;
7767;SDS011;3928;42.626;23.382;2023-04-15T09:33:20;1.98;;;1.70;;
7767;SDS011;3928;42.626;23.382;2023-04-15T09:35:55;3.13;;;2.00;;
7767;SDS011;3928;42.626;23.382;2023-04-15T09:38:23;2.92;;;2.00;;
7767;SDS011;3928;42.626;23.382;2023-04-15T09:40:50;1.95;;;1.75;;
7767;SDS011;3928;42.626;23.382;2023-04-15T09:43:18;1.83;;;1.40;;
7767;SDS011;3928;42.626;23.382;2023-04-15T09:45:48;7.18;;;1.92;;
7767;SDS011;3928;42.626;23.382;2023-04-15T09:48:17;4.90;;;2.20;;
7767;SDS011;3928;42.626;23.382;2023-04-15T09:50:46;7.43;;;2.03;;
7767;SDS011;3928;42.626;23.382;2023-04-15T09:53:17;3.15;;;1.85;;
7767;SDS011;3928;42.626;23.382;2023-04-15T09:55:46;5.43;;;1.92;;
7767;SDS011;3928;42.626;23.382;2023-04-15T09:58:20;3.85;;;2.50;;
7767;SDS011;3928;42.626;23.382;2023-04-15T10:00:48;4.60;;;2.30;;
7767;SDS011;3928;42.626;23.382;2023-04-15T10:03:18;3.05;;;2.08;;
7767;SDS011;3928;42.626;23.382;2023-04-15T10:05:47;3.72;;;2.40;;
7767;SDS011;3928;42.626;23.382;2023-04-15T10:08:16;2.38;;;1.77;;
7767;SDS011;3928;42.626;23.382;2023-04-15T10:10:44;4.22;;;2.00;;
7767;SDS011;3928;42.626;23.382;2023-04-15T10:13:12;4.28;;;1.98;;
7767;SDS011;3928;42.626;23.382;2023-04-15T10:15:43;6.15;;;3.15;;
7767;SDS011;3928;42.626;23.382;2023-04-15T10:18:11;5.25;;;2.20;;
7767;SDS011;3928;42.626;23.382;2023-04-15T10:20:42;3.20;;;1.98;;
7767;SDS011;3928;42.626;23.382;2023-04-15T10:23:10;4.82;;;2.58;;
7767;SDS011;3928;42.626;23.382;2023-04-15T10:25:38;3.40;;;1.92;;
7767;SDS011;3928;42.626;23.382;2023-04-15T10:28:06;4.10;;;2.30;;
7767;SDS011;3928;42.626;23.382;2023-04-15T10:30:33;2.88;;;1.85;;
7767;SDS011;3928;42.626;23.382;2023-04-15T10:33:03;2.42;;;1.70;;
7767;SDS011;3928;42.626;23.382;2023-04-15T10:35:31;2.42;;;1.73;;
7767;SDS011;3928;42.626;23.382;2023-04-15T10:37:59;5.05;;;1.80;;
7767;SDS011;3928;42.626;23.382;2023-04-15T10:40:26;4.00;;;1.90;;
7767;SDS011;3928;42.626;23.382;2023-04-15T10:42:56;3.70;;;2.10;;
7767;SDS011;3928;42.626;23.382;2023-04-15T10:45:24;3.88;;;1.75;;
7767;SDS011;3928;42.626;23.382;2023-04-15T10:47:53;2.92;;;2.10;;
7767;SDS011;3928;42.626;23.382;2023-04-15T10:50:22;2.42;;;1.85;;
7767;SDS011;3928;42.626;23.382;2023-04-15T10:52:51;4.70;;;1.88;;
7767;SDS011;3928;42.626;23.382;2023-04-15T10:55:19;4.78;;;2.03;;
7767;SDS011;3928;42.626;23.382;2023-04-15T10:57:50;2.85;;;1.73;;
7767;SDS011;3928;42.626;23.382;2023-04-15T11:00:18;2.05;;;1.70;;
7767;SDS011;3928;42.626;23.382;2023-04-15T11:02:47;2.40;;;1.67;;
7767;SDS011;3928;42.626;23.382;2023-04-15T11:05:18;3.35;;;2.00;;
7767;SDS011;3928;42.626;23.382;2023-04-15T11:07:51;4.53;;;1.90;;
7767;SDS011;3928;42.626;23.382;2023-04-15T11:13:19;2.67;;;1.58;;
7767;SDS011;3928;42.626;23.382;2023-04-15T11:15:53;3.10;;;1.48;;
7767;SDS011;3928;42.626;23.382;2023-04-15T11:18:22;4.13;;;1.90;;
7767;SDS011;3928;42.626;23.382;2023-04-15T11:20:51;8.02;;;1.65;;
7767;SDS011;3928;42.626;23.382;2023-04-15T11:23:27;2.55;;;1.65;;
7767;SDS011;3928;42.626;23.382;2023-04-15T11:25:56;4.13;;;1.98;;
7767;SDS011;3928;42.626;23.382;2023-04-15T11:28:24;2.90;;;1.70;;
7767;SDS011;3928;42.626;23.382;2023-04-15T11:30:52;2.10;;;1.70;;
7767;SDS011;3928;42.626;23.382;2023-04-15T11:33:20;2.00;;;1.38;;
7767;SDS011;3928;42.626;23.382;2023-04-15T11:35:47;2.80;;;1.60;;
7767;SDS011;3928;42.626;23.382;2023-04-15T11:38:15;3.88;;;1.90;;
7767;SDS011;3928;42.626;23.382;2023-04-15T11:40:43;2.58;;;1.33;;
7767;SDS011;3928;42.626;23.382;2023-04-15T11:43:11;2.28;;;1.65;;
7767;SDS011;3928;42.626;23.382;2023-04-15T11:45:47;2.13;;;1.60;;
7767;SDS011;3928;42.626;23.382;2023-04-15T11:48:15;3.45;;;1.48;;
7767;SDS011;3928;42.626;23.382;2023-04-15T11:50:42;3.20;;;1.80;;
7767;SDS011;3928;42.626;23.382;2023-04-15T11:53:10;6.20;;;1.90;;
7767;SDS011;3928;42.626;23.382;2023-04-15T11:55:43;4.20;;;1.92;;
7767;SDS011;3928;42.626;23.382;2023-04-15T11:58:12;1.90;;;1.58;;
7767;SDS011;3928;42.626;23.382;2023-04-15T12:00:40;2.47;;;1.45;;
7767;SDS011;3928;42.626;23.382;2023-04-15T12:03:21;1.70;;;1.30;;
7767;SDS011;3928;42.626;23.382;2023-04-15T12:06:05;2.05;;;1.60;;
7767;SDS011;3928;42.626;23.382;2023-04-15T12:08:50;2.55;;;1.92;;
7767;SDS011;3928;42.626;23.382;2023-04-15T12:11:29;1.67;;;1.42;;
7767;SDS011;3928;42.626;23.382;2023-04-15T12:14:02;1.13;;;1.13;;
7767;SDS011;3928;42.626;23.382;2023-04-15T12:16:32;1.30;;;1.20;;
7767;SDS011;3928;42.626;23.382;2023-04-15T12:19:01;1.95;;;1.30;;
7767;SDS011;3928;42.626;23.382;2023-04-15T12:21:32;1.48;;;1.38;;
7767;SDS011;3928;42.626;23.382;2023-04-15T12:24:01;2.13;;;1.23;;
7767;SDS011;3928;42.626;23.382;2023-04-15T12:26:34;1.75;;;1.10;;
7767;SDS011;3928;42.626;23.382;2023-04-15T12:29:03;1.10;;;1.10;;
7767;SDS011;3928;42.626;23.382;2023-04-15T12:31:32;1.85;;;1.23;;
7767;SDS011;3928;42.626;23.382;2023-04-15T12:34:00;1.30;;;1.20;;
7767;SDS011;3928;42.626;23.382;2023-04-15T12:36:27;5.25;;;1.65;;
7767;SDS011;3928;42.626;23.382;2023-04-15T12:38:57;2.85;;;1.40;;
7767;SDS011;3928;42.626;23.382;2023-04-15T12:41:23;2.08;;;1.10;;
7767;SDS011;3928;42.626;23.382;2023-04-15T12:43:52;3.20;;;1.60;;
7767;SDS011;3928;42.626;23.382;2023-04-15T12:46:19;1.33;;;1.17;;
7767;SDS011;3928;42.626;23.382;2023-04-15T12:48:46;1.13;;;1.10;;
7767;SDS011;3928;42.626;23.382;2023-04-15T12:51:13;5.28;;;1.20;;
7767;SDS011;3928;42.626;23.382;2023-04-15T12:53:39;3.92;;;1.33;;
7767;SDS011;3928;42.626;23.382;2023-04-15T12:56:06;1.50;;;1.30;;
7767;SDS011;3928;42.626;23.382;2023-04-15T12:58:33;2.75;;;1.30;;
7767;SDS011;3928;42.626;23.382;2023-04-15T13:01:02;2.20;;;1.40;;
7767;SDS011;3928;42.626;23.382;2023-04-15T13:03:28;1.65;;;1.35;;
7767;SDS011;3928;42.626;23.382;2023-04-15T13:05:55;2.38;;;1.35;;
7767;SDS011;3928;42.626;23.382;2023-04-15T13:08:23;1.40;;;1.30;;
7767;SDS011;3928;42.626;23.382;2023-04-15T13:10:49;1.63;;;1.30;;
7767;SDS011;3928;42.626;23.382;2023-04-15T13:13:16;1.75;;;1.13;;
7767;SDS011;3928;42.626;23.382;2023-04-15T13:15:43;3.47;;;1.40;;
7767;SDS011;3928;42.626;23.382;2023-04-15T13:18:12;1.42;;;1.10;;
7767;SDS011;3928;42.626;23.382;2023-04-15T13:20:38;2.50;;;1.27;;
7767;SDS011;3928;42.626;23.382;2023-04-15T13:23:06;1.52;;;1.05;;
7767;SDS011;3928;42.626;23.382;2023-04-15T13:25:32;1.88;;;1.30;;
7767;SDS011;3928;42.626;23.382;2023-04-15T13:27:59;2.92;;;1.42;;
7767;SDS011;3928;42.626;23.382;2023-04-15T13:30:26;2.25;;;1.20;;
7767;SDS011;3928;42.626;23.382;2023-04-15T13:32:53;2.55;;;1.20;;
7767;SDS011;3928;42.626;23.382;2023-04-15T13:35:21;2.40;;;1.15;;
7767;SDS011;3928;42.626;23.382;2023-04-15T13:37:48;1.40;;;1.02;;
7767;SDS011;3928;42.626;23.382;2023-04-15T13:40:15;1.40;;;1.30;;
7767;SDS011;3928;42.626;23.382;2023-04-15T13:42:41;1.50;;;1.10;;
7767;SDS011;3928;42.626;23.382;2023-04-15T13:45:09;1.90;;;1.20;;
7767;SDS011;3928;42.626;23.382;2023-04-15T13:47:36;3.42;;;1.40;;
7767;SDS011;3928;42.626;23.382;2023-04-15T13:50:03;2.35;;;1.00;;
7767;SDS011;3928;42.626;23.382;2023-04-15T13:52:32;2.53;;;1.10;;
7767;SDS011;3928;42.626;23.382;2023-04-15T13:54:59;2.17;;;1.10;;
7767;SDS011;3928;42.626;23.382;2023-04-15T13:57:25;1.98;;;1.27;;
7767;SDS011;3928;42.626;23.382;2023-04-15T13:59:52;1.48;;;1.20;;
7767;SDS011;3928;42.626;23.382;2023-04-15T14:02:20;1.23;;;1.10;;
7767;SDS011;3928;42.626;23.382;2023-04-15T14:04:48;2.33;;;1.45;;
7767;SDS011;3928;42.626;23.382;2023-04-15T14:07:15;1.40;;;1.23;;
7767;SDS011;3928;42.626;23.382;2023-04-15T14:09:43;1.15;;;1.08;;
7767;SDS011;3928;42.626;23.382;2023-04-15T14:12:10;1.83;;;1.15;;
7767;SDS011;3928;42.626;23.382;2023-04-15T14:14:36;2.55;;;1.20;;
7767;SDS011;3928;42.626;23.382;2023-04-15T14:17:03;1.25;;;1.15;;
7767;SDS011;3928;42.626;23.382;2023-04-15T14:19:31;1.65;;;1.25;;
7767;SDS011;3928;42.626;23.382;2023-04-15T14:21:58;2.35;;;1.20;;
7767;SDS011;3928;42.626;23.382;2023-04-15T14:24:24;2.05;;;1.20;;
7767;SDS011;3928;42.626;23.382;2023-04-15T14:26:53;2.60;;;1.35;;
7767;SDS011;3928;42.626;23.382;2023-04-15T14:29:20;1.70;;;1.40;;
7767;SDS011;3928;42.626;23.382;2023-04-15T14:31:47;2.83;;;1.50;;
7767;SDS011;3928;42.626;23.382;2023-04-15T14:34:15;2.90;;;1.17;;
7767;SDS011;3928;42.626;23.382;2023-04-15T14:36:41;2.25;;;1.25;;
7767;SDS011;3928;42.626;23.382;2023-04-15T14:39:10;3.45;;;1.58;;
7767;SDS011;3928;42.626;23.382;2023-04-15T14:41:37;1.58;;;1.27;;
7767;SDS011;3928;42.626;23.382;2023-04-15T14:44:05;1.42;;;1.33;;
7767;SDS011;3928;42.626;23.382;2023-04-15T14:46:33;1.48;;;1.27;;
7767;SDS011;3928;42.626;23.382;2023-04-15T14:49:00;3.63;;;1.40;;
7767;SDS011;3928;42.626;23.382;2023-04-15T14:51:27;1.30;;;1.20;;
7767;SDS011;3928;42.626;23.382;2023-04-15T14:53:55;7.15;;;1.90;;
7767;SDS011;3928;42.626;23.382;2023-04-15T14:56:22;2.55;;;1.83;;
7767;SDS011;3928;42.626;23.382;2023-04-15T14:58:49;2.80;;;1.60;;
7767;SDS011;3928;42.626;23.382;2023-04-15T15:01:18;2.33;;;1.60;;
7767;SDS011;3928;42.626;23.382;2023-04-15T15:03:45;1.48;;;1.38;;
7767;SDS011;3928;42.626;23.382;2023-04-15T15:06:13;2.22;;;1.45;;